This is the latest recevied weather packets stored in our database for station/object KC8ZBC. If no packets are shown the sender has not sent any weather packets the latest 10 day(s).
| Time | Temp. | Humidity | Pressure | Rain* | Wind** | Luminosity | Snow |
|---|---|---|---|---|---|---|---|
| 1777831945 | 14.44° C | 46% | 985.7 hPa | 0 mm | - | 135 W/m² | - |
| 1777831641 | 14.44° C | 45% | 985.6 hPa | 0 mm | - | 120 W/m² | - |
| 1777831340 | 14.44° C | 46% | 985.7 hPa | 0 mm | - | 116 W/m² | - |
| 1777831036 | 14.44° C | 45% | 985.8 hPa | 0 mm | - | 97 W/m² | - |
| 1777830734 | 15° C | 44% | 985.9 hPa | 0 mm | - | 148 W/m² | - |
| 1777830430 | 15° C | 44% | 985.8 hPa | 0 mm | - | 184 W/m² | - |
| 1777830128 | 15.56° C | 42% | 985.5 hPa | 0 mm | - | 215 W/m² | - |
| 1777829827 | 15.56° C | 44% | 985.9 hPa | 0 mm | - | 334 W/m² | - |
| 1777829524 | 15.56° C | 42% | 985.9 hPa | 0 mm | - | 259 W/m² | - |
| 1777829221 | 15.56° C | 44% | 985.7 hPa | 0 mm | - | 526 W/m² | - |
| 1777828918 | 15° C | 43% | 985.9 hPa | 0 mm | - | 593 W/m² | - |
| 1777828614 | 15° C | 44% | 986.2 hPa | 0 mm | - | 450 W/m² | - |
| 1777828312 | 15° C | 44% | 986.2 hPa | 0 mm | - | 336 W/m² | - |
| 1777828009 | 14.44° C | 45% | 986.5 hPa | 0 mm | - | 384 W/m² | - |
| 1777827705 | 14.44° C | 44% | 986.4 hPa | 0 mm | - | 289 W/m² | - |
| 1777827402 | 14.44° C | 45% | 986.2 hPa | 0 mm | - | 311 W/m² | - |
| 1777827099 | 13.89° C | 45% | 986.6 hPa | 0 mm | - | 226 W/m² | - |
| 1777826795 | 13.33° C | 45% | 986.5 hPa | 0 mm | - | 150 W/m² | - |
| 1777826493 | 13.89° C | 43% | 986.8 hPa | 0 mm | - | 262 W/m² | - |
| 1777826189 | 13.89° C | 44% | 986.8 hPa | 0 mm | - | 275 W/m² | - |
| 1777825887 | 14.44° C | 43% | 986.6 hPa | 0 mm | - | 324 W/m² | - |
| 1777825584 | 13.33° C | 45% | 986.9 hPa | 0 mm | - | 313 W/m² | - |
| 1777825282 | 12.78° C | 48% | 986.8 hPa | 0 mm | - | 257 W/m² | - |
| 1777824978 | 12.78° C | 46% | 986.9 hPa | 0 mm | - | 165 W/m² | - |
| 1777824674 | 12.78° C | 45% | 987 hPa | 0 mm | - | 149 W/m² | - |
* Rain latest hour (hover to see other rain measurements)
** Current wind speed in m/s (hover to see current wind gust speed)